createdAt,value
2024-01-06T00:09:49.163Z,2.72
2024-01-06T00:14:50.720Z,2.60
2024-01-06T00:19:52.633Z,2.60
2024-01-06T00:24:54.398Z,2.50
2024-01-06T00:29:55.925Z,2.17
2024-01-06T00:34:57.496Z,2.22
2024-01-06T00:40:00.580Z,2.63
2024-01-06T00:45:02.202Z,2.65
2024-01-06T00:50:03.781Z,2.30
2024-01-06T00:55:05.430Z,2.30
2024-01-06T01:00:07.271Z,3.03
2024-01-06T01:05:08.942Z,2.65
2024-01-06T01:10:10.891Z,2.67
2024-01-06T01:15:14.062Z,2.22
2024-01-06T01:20:15.593Z,2.70
2024-01-06T01:25:17.106Z,2.80
2024-01-06T01:30:18.736Z,2.60
2024-01-06T01:35:20.316Z,3.22
2024-01-06T01:40:21.829Z,2.75
2024-01-06T01:45:23.448Z,2.08
2024-01-06T01:50:28.676Z,2.45
2024-01-06T01:55:30.216Z,2.78
2024-01-06T02:00:31.848Z,3.20
2024-01-06T02:05:33.497Z,3.00
2024-01-06T02:10:35.186Z,3.00
2024-01-06T02:15:36.861Z,2.28
2024-01-06T02:20:38.560Z,3.72
2024-01-06T02:25:40.100Z,3.08
2024-01-06T02:30:41.764Z,3.47
2024-01-06T02:35:43.371Z,3.35
2024-01-06T02:40:44.955Z,3.63
2024-01-06T02:45:47.917Z,2.78
2024-01-06T02:50:49.554Z,3.35
2024-01-06T02:55:51.049Z,3.75
2024-01-06T03:00:52.581Z,3.63
2024-01-06T03:05:54.143Z,3.10
2024-01-06T03:10:55.678Z,2.53
2024-01-06T03:15:57.232Z,3.45
2024-01-06T03:20:58.781Z,3.50
2024-01-06T03:26:02.177Z,2.78
2024-01-06T03:31:03.810Z,2.78
2024-01-06T03:36:07.313Z,3.40
2024-01-06T03:41:08.819Z,3.05
2024-01-06T03:46:10.350Z,3.25
2024-01-06T03:51:13.661Z,3.15
2024-01-06T03:56:15.267Z,2.95
2024-01-06T04:01:16.800Z,3.08
2024-01-06T04:06:18.911Z,2.60
2024-01-06T04:11:20.455Z,3.00
2024-01-06T04:16:21.995Z,2.40
2024-01-06T04:21:23.529Z,2.55
2024-01-06T04:26:25.860Z,2.78
2024-01-06T04:31:27.413Z,2.45
2024-01-06T04:36:28.962Z,2.47
2024-01-06T04:41:30.497Z,2.05
2024-01-06T04:46:32.074Z,3.17
2024-01-06T04:51:33.664Z,2.08
2024-01-06T04:56:36.773Z,3.13
2024-01-06T05:01:38.735Z,3.08
2024-01-06T05:06:40.316Z,3.10
2024-01-06T05:11:41.924Z,2.95
2024-01-06T05:16:43.548Z,3.10
2024-01-06T05:21:45.092Z,2.78
2024-01-06T05:26:47.566Z,2.60
2024-01-06T05:31:56.706Z,3.20
2024-01-06T05:36:58.294Z,2.30
2024-01-06T05:41:59.807Z,2.25
2024-01-06T05:47:01.311Z,2.53
2024-01-06T05:52:02.800Z,2.25
2024-01-06T05:57:07.100Z,3.25
2024-01-06T06:02:08.739Z,3.03
2024-01-06T06:07:10.367Z,2.40
2024-01-06T06:12:11.997Z,2.97
2024-01-06T06:17:13.549Z,2.67
2024-01-06T06:22:15.136Z,3.17
2024-01-06T06:27:16.644Z,2.90
2024-01-06T06:32:18.205Z,2.83
2024-01-06T06:37:19.721Z,3.70
2024-01-06T06:42:21.326Z,2.63
2024-01-06T06:47:23.199Z,2.65
2024-01-06T06:52:24.716Z,3.20
2024-01-06T06:57:26.309Z,2.60
2024-01-06T07:02:28.050Z,3.10
2024-01-06T07:07:29.610Z,2.60
2024-01-06T07:12:31.165Z,2.53
2024-01-06T07:17:32.832Z,2.67
2024-01-06T07:22:35.824Z,2.05
2024-01-06T07:27:37.441Z,2.22
2024-01-06T07:32:39.243Z,2.72
2024-01-06T07:37:40.779Z,2.30
2024-01-06T07:42:42.507Z,2.70
2024-01-06T07:47:44.118Z,2.10
2024-01-06T07:52:45.724Z,2.15
2024-01-06T07:57:47.275Z,2.40
2024-01-06T08:02:48.826Z,3.33
2024-01-06T08:07:51.934Z,2.60
2024-01-06T08:12:55.096Z,2.67
2024-01-06T08:17:56.748Z,2.33
2024-01-06T08:22:58.301Z,2.95
2024-01-06T08:28:00.082Z,1.85
2024-01-06T08:33:02.684Z,1.48
2024-01-06T08:38:04.321Z,1.80
2024-01-06T08:43:05.814Z,2.10
2024-01-06T08:48:07.703Z,2.53
2024-01-06T08:53:09.227Z,2.35
2024-01-06T08:58:10.728Z,2.30
2024-01-06T09:03:13.676Z,2.10
2024-01-06T09:08:15.399Z,1.85
2024-01-06T09:13:16.908Z,1.98
2024-01-06T09:18:18.548Z,1.52
2024-01-06T09:23:22.537Z,1.85
2024-01-06T09:28:25.723Z,2.15
2024-01-06T09:33:27.331Z,1.67
2024-01-06T09:38:28.899Z,2.28
2024-01-06T09:43:31.361Z,2.30
2024-01-06T09:48:33.112Z,1.67
2024-01-06T09:53:35.596Z,1.58
2024-01-06T09:58:37.846Z,1.83
2024-01-06T10:03:39.538Z,1.50
2024-01-06T10:08:44.188Z,1.42
2024-01-06T10:13:45.684Z,1.40
2024-01-06T10:18:51.441Z,1.65
2024-01-06T10:23:55.652Z,2.08
2024-01-06T10:28:57.426Z,2.28
2024-01-06T10:33:59.034Z,1.70
2024-01-06T10:39:01.968Z,2.38
2024-01-06T10:44:03.863Z,2.45
2024-01-06T10:49:06.507Z,1.70
2024-01-06T10:54:08.038Z,1.90
2024-01-06T10:59:09.649Z,2.00
2024-01-06T11:04:12.054Z,1.30
2024-01-06T11:09:22.542Z,2.05
2024-01-06T11:14:29.098Z,2.08
2024-01-06T11:19:38.065Z,2.05
2024-01-06T11:24:40.329Z,2.05
2024-01-06T11:29:44.537Z,1.85
2024-01-06T11:34:50.067Z,1.88
2024-01-06T11:39:51.704Z,2.08
2024-01-06T11:44:53.240Z,2.15
2024-01-06T11:49:55.424Z,2.30
2024-01-06T11:54:57.046Z,2.45
2024-01-06T11:59:58.684Z,2.30
2024-01-06T12:05:00.286Z,2.50
2024-01-06T12:10:03.139Z,1.60
2024-01-06T12:15:05.477Z,2.00
2024-01-06T12:20:09.813Z,1.50
2024-01-06T12:25:11.400Z,1.98
2024-01-06T12:30:20.403Z,1.80
2024-01-06T12:35:22.652Z,1.80
2024-01-06T12:40:24.268Z,1.90
2024-01-06T12:45:29.094Z,1.95
2024-01-06T12:50:30.668Z,2.10
2024-01-06T12:55:32.242Z,1.73
2024-01-06T13:00:37.076Z,1.95
2024-01-06T13:05:39.041Z,1.95
2024-01-06T13:10:40.588Z,2.20
2024-01-06T13:15:42.229Z,1.85
2024-01-06T13:20:44.506Z,1.88
2024-01-06T13:25:46.003Z,1.88
2024-01-06T13:30:47.766Z,2.50
2024-01-06T13:35:49.331Z,1.80
2024-01-06T13:40:50.833Z,2.10
2024-01-06T13:45:52.427Z,2.50
2024-01-06T13:50:53.926Z,2.17
2024-01-06T13:55:55.782Z,2.10
2024-01-06T14:00:57.510Z,2.50
2024-01-06T14:05:59.163Z,2.78
2024-01-06T14:11:00.700Z,2.40
2024-01-06T14:16:02.534Z,2.00
2024-01-06T14:21:04.309Z,1.80
2024-01-06T14:26:05.850Z,3.20
2024-01-06T14:31:07.432Z,2.38
2024-01-06T14:36:09.428Z,3.30
2024-01-06T14:41:10.943Z,2.70
2024-01-06T14:46:12.450Z,1.85
2024-01-06T14:51:13.996Z,2.03
2024-01-06T14:56:15.567Z,2.67
2024-01-06T15:01:17.106Z,2.10
2024-01-06T15:06:18.893Z,2.13
2024-01-06T15:11:20.528Z,2.05
2024-01-06T15:16:22.030Z,2.72
2024-01-06T15:21:24.382Z,2.28
2024-01-06T15:26:26.076Z,2.60
2024-01-06T15:31:29.125Z,1.77
2024-01-06T15:36:30.811Z,2.00
2024-01-06T15:41:32.395Z,2.22
2024-01-06T15:46:33.896Z,3.00
2024-01-06T15:51:35.475Z,2.22
2024-01-06T15:56:37.066Z,2.38
2024-01-06T16:01:38.732Z,2.70
2024-01-06T16:06:41.283Z,2.70
2024-01-06T16:11:42.953Z,3.28
2024-01-06T16:16:44.474Z,2.55
2024-01-06T16:21:46.433Z,3.40
2024-01-06T16:26:47.961Z,3.13
2024-01-06T16:31:49.773Z,2.95
2024-01-06T16:36:51.433Z,2.75
2024-01-06T16:41:53.310Z,3.15
2024-01-06T16:46:58.205Z,3.10
2024-01-06T16:51:59.874Z,2.85
2024-01-06T16:57:03.738Z,2.90
2024-01-06T17:02:05.346Z,2.45
2024-01-06T17:07:07.731Z,3.08
2024-01-06T17:12:09.300Z,3.45
2024-01-06T17:17:10.847Z,3.10
2024-01-06T17:22:12.360Z,2.58
2024-01-06T17:27:14.637Z,3.00
2024-01-06T17:32:16.201Z,3.00
2024-01-06T17:37:17.785Z,3.13
2024-01-06T17:42:19.486Z,3.15
2024-01-06T17:47:21.376Z,4.80
2024-01-06T17:52:27.097Z,4.13
2024-01-06T17:57:34.246Z,3.70
2024-01-06T18:02:38.672Z,6.35
2024-01-06T18:07:40.900Z,4.65
2024-01-06T18:12:42.770Z,3.63
2024-01-06T18:17:44.454Z,3.50
2024-01-06T18:22:46.019Z,3.45
2024-01-06T18:27:47.600Z,4.32
2024-01-06T18:32:49.310Z,3.47
2024-01-06T18:37:50.991Z,3.47
2024-01-06T18:42:53.068Z,3.65
2024-01-06T18:47:54.647Z,2.95
2024-01-06T18:52:56.229Z,4.25
2024-01-06T18:57:57.750Z,3.58
2024-01-06T19:02:59.972Z,3.60
2024-01-06T19:08:01.733Z,3.42
2024-01-06T19:13:03.620Z,3.10
2024-01-06T19:18:06.434Z,3.30
2024-01-06T19:23:10.144Z,3.35
2024-01-06T19:28:11.945Z,2.60
2024-01-06T19:33:13.582Z,3.55
2024-01-06T19:38:20.029Z,3.60
2024-01-06T19:43:22.615Z,3.90
2024-01-06T19:48:24.406Z,3.35
2024-01-06T19:53:26.125Z,3.55
2024-01-06T19:58:27.633Z,3.33
2024-01-06T20:03:29.241Z,3.55
2024-01-06T20:08:31.059Z,4.82
2024-01-06T20:13:32.581Z,4.97
2024-01-06T20:18:34.303Z,4.95
2024-01-06T20:23:36.143Z,4.57
2024-01-06T20:28:37.749Z,5.03
2024-01-06T20:33:39.480Z,5.00
2024-01-06T20:38:42.650Z,5.35
2024-01-06T20:43:44.231Z,6.10
2024-01-06T20:48:46.946Z,5.40
2024-01-06T20:53:48.936Z,5.45
2024-01-06T20:58:50.492Z,5.20
2024-01-06T21:03:56.309Z,4.13
2024-01-06T21:08:57.932Z,3.80
2024-01-06T21:13:59.460Z,3.80
2024-01-06T21:19:01.057Z,3.92
2024-01-06T21:24:02.618Z,3.53
2024-01-06T21:29:04.774Z,3.65
2024-01-06T21:34:06.365Z,3.33
2024-01-06T21:39:08.093Z,3.78
2024-01-06T21:44:09.611Z,3.13
2024-01-06T21:49:11.245Z,3.30
2024-01-06T21:54:12.801Z,3.15
2024-01-06T21:59:14.414Z,3.53
2024-01-06T22:04:16.087Z,2.90
2024-01-06T22:14:19.559Z,2.80
2024-01-06T22:19:21.105Z,2.90
2024-01-06T22:24:24.397Z,3.33
2024-01-06T22:29:25.934Z,3.85
2024-01-06T22:34:27.652Z,3.50
2024-01-06T22:39:29.294Z,3.45
2024-01-06T22:44:30.850Z,3.63
2024-01-06T22:49:32.492Z,3.50
2024-01-06T22:54:34.130Z,3.50
2024-01-06T22:59:35.660Z,3.25
2024-01-06T23:04:38.017Z,3.20
2024-01-06T23:09:39.942Z,3.63
2024-01-06T23:14:41.656Z,3.45
2024-01-06T23:19:46.045Z,3.10
2024-01-06T23:24:48.007Z,3.20
2024-01-06T23:29:49.525Z,2.65
2024-01-06T23:34:51.107Z,2.60
2024-01-06T23:39:52.720Z,3.38
2024-01-06T23:44:54.942Z,3.30
2024-01-06T23:49:56.481Z,2.92
2024-01-06T23:54:58.071Z,2.90
2024-01-06T23:59:59.627Z,3.53
